This is the latest recevied weather packets stored in our database for station/object N3WPH. If no packets are shown the sender has not sent any weather packets the latest 10 day(s).
| Time | Temp. | Humidity | Pressure | Rain* | Wind** | Luminosity | Snow |
|---|---|---|---|---|---|---|---|
| 1777729037 | 7.78° C | 75% | 1013.6 hPa | 0 mm | - | 219 W/m² | - |
| 1777728734 | 8.33° C | 78% | 1013.6 hPa | 0 mm | - | 404 W/m² | - |
| 1777728430 | 7.22° C | 77% | 1013.8 hPa | 0 mm | - | 235 W/m² | - |
| 1777728128 | 6.67° C | 80% | 1013.8 hPa | 0 mm | - | 161 W/m² | - |
| 1777727825 | 7.22° C | 82% | 1013.7 hPa | 0 mm | - | 138 W/m² | - |
| 1777727522 | 7.78° C | 81% | 1013.8 hPa | 0 mm | - | 153 W/m² | - |
| 1777727219 | 8.33° C | 83% | 1013.9 hPa | 0 mm | - | 199 W/m² | - |
| 1777726917 | 8.33° C | 86% | 1013.9 hPa | 0 mm | - | 449 W/m² | - |
| 1777726612 | 7.22° C | 87% | 1014 hPa | 0 mm | - | 412 W/m² | - |
| 1777726310 | 6.11° C | 88% | 1014 hPa | 0 mm | - | 161 W/m² | - |
| 1777726007 | 6.67° C | 88% | 1013.9 hPa | 0 mm | - | 107 W/m² | - |
| 1777725704 | 6.67° C | 90% | 1014.1 hPa | 0 mm | - | 136 W/m² | - |
| 1777725402 | 6.11° C | 90% | 1014 hPa | 0 mm | - | 160 W/m² | - |
| 1777725099 | 6.11° C | 91% | 1013.8 hPa | 0 mm | - | 118 W/m² | - |
| 1777724795 | 6.11° C | 92% | 1013.8 hPa | 0 mm | - | 136 W/m² | - |
| 1777724492 | 6.11° C | 92% | 1013.8 hPa | 0 mm | - | 100 W/m² | - |
| 1777724190 | 5.56° C | 92% | 1013.5 hPa | 0 mm | - | 83 W/m² | - |
| 1777723887 | 5.56° C | 92% | 1013.8 hPa | 0 mm | - | 83 W/m² | - |
| 1777723584 | 5.56° C | 92% | 1013.5 hPa | 0 mm | - | 64 W/m² | - |
| 1777723281 | 6.11° C | 92% | 1013.6 hPa | 0 mm | - | 94 W/m² | - |
| 1777722979 | 6.11° C | 92% | 1013.6 hPa | 0 mm | - | 110 W/m² | - |
| 1777722674 | 6.11° C | 92% | 1013.5 hPa | 0 mm | - | 76 W/m² | - |
| 1777722371 | 6.11° C | 92% | 1013.6 hPa | 0 mm | - | 127 W/m² | - |
| 1777722068 | 6.67° C | 93% | 1013.6 hPa | 0 mm | - | 129 W/m² | - |
| 1777721765 | 6.11° C | 93% | 1013.7 hPa | 0 mm | - | 138 W/m² | - |
* Rain latest hour (hover to see other rain measurements)
** Current wind speed in m/s (hover to see current wind gust speed)